createdAt,value
2023-05-18T00:00:19.395Z,9.90
2023-05-18T00:02:48.671Z,10.00
2023-05-18T00:05:18.059Z,9.90
2023-05-18T00:07:45.598Z,10.00
2023-05-18T00:10:12.333Z,10.10
2023-05-18T00:12:39.133Z,10.10
2023-05-18T00:15:06.330Z,10.10
2023-05-18T00:17:33.105Z,10.10
2023-05-18T00:20:00.901Z,10.20
2023-05-18T00:22:27.661Z,10.20
2023-05-18T00:24:54.371Z,10.30
2023-05-18T00:27:21.003Z,10.30
2023-05-18T00:29:47.687Z,10.20
2023-05-18T00:32:14.336Z,10.20
2023-05-18T00:34:40.982Z,10.20
2023-05-18T00:37:07.639Z,10.10
2023-05-18T00:39:34.342Z,9.90
2023-05-18T00:42:01.110Z,9.90
2023-05-18T00:44:27.762Z,9.90
2023-05-18T00:46:54.440Z,9.90
2023-05-18T00:49:21.273Z,9.90
2023-05-18T00:51:48.366Z,9.90
2023-05-18T00:54:16.162Z,9.90
2023-05-18T00:56:46.712Z,10.00
2023-05-18T00:59:13.796Z,10.00
2023-05-18T01:01:46.221Z,10.10
2023-05-18T01:04:16.064Z,10.10
2023-05-18T01:06:43.641Z,10.10
2023-05-18T01:09:12.393Z,10.00
2023-05-18T01:11:53.982Z,9.80
2023-05-18T01:14:39.195Z,9.80
2023-05-18T01:17:23.510Z,9.80
2023-05-18T01:20:27.079Z,9.70
2023-05-18T01:23:24.009Z,9.70
2023-05-18T01:25:59.337Z,9.70
2023-05-18T01:28:30.375Z,9.60
2023-05-18T01:30:58.272Z,9.60
2023-05-18T01:33:25.651Z,9.70
2023-05-18T01:35:52.629Z,9.70
2023-05-18T01:38:22.830Z,9.80
2023-05-18T01:41:10.994Z,10.00
2023-05-18T01:43:50.053Z,9.90
2023-05-18T01:46:29.288Z,9.80
2023-05-18T01:49:01.358Z,9.70
2023-05-18T01:51:33.783Z,9.60
2023-05-18T01:54:07.671Z,9.50
2023-05-18T01:56:36.107Z,9.40
2023-05-18T01:59:03.324Z,9.50
2023-05-18T02:01:30.483Z,9.50
2023-05-18T02:03:57.345Z,9.30
2023-05-18T02:06:24.252Z,9.40
2023-05-18T02:08:51.680Z,9.50
2023-05-18T02:11:18.506Z,9.40
2023-05-18T02:13:45.215Z,9.40
2023-05-18T02:16:11.966Z,9.30
2023-05-18T02:18:38.704Z,9.20
2023-05-18T02:21:05.421Z,9.10
2023-05-18T02:23:32.369Z,9.30
2023-05-18T02:25:59.158Z,9.50
2023-05-18T02:28:26.897Z,9.50
2023-05-18T02:30:53.593Z,9.60
2023-05-18T02:33:26.055Z,9.70
2023-05-18T02:35:53.358Z,9.50
2023-05-18T02:38:20.261Z,9.50
2023-05-18T02:40:47.024Z,9.60
2023-05-18T02:43:13.761Z,9.50
2023-05-18T02:45:40.485Z,9.50
2023-05-18T02:48:07.249Z,9.30
2023-05-18T02:50:33.926Z,9.30
2023-05-18T02:53:00.566Z,9.40
2023-05-18T02:55:28.888Z,9.40
2023-05-18T02:57:57.388Z,9.40
2023-05-18T03:00:24.323Z,9.40
2023-05-18T03:02:51.050Z,9.50
2023-05-18T03:05:18.531Z,9.50
2023-05-18T03:07:50.765Z,9.50
2023-05-18T03:10:17.911Z,9.60
2023-05-18T03:12:44.644Z,9.60
2023-05-18T03:15:11.786Z,9.30
2023-05-18T03:17:48.043Z,9.40
2023-05-18T03:20:15.522Z,9.40
2023-05-18T03:22:42.337Z,9.20
2023-05-18T03:25:09.054Z,9.40
2023-05-18T03:27:37.821Z,9.50
2023-05-18T03:30:04.923Z,9.50
2023-05-18T03:32:33.229Z,9.50
2023-05-18T03:35:01.209Z,9.50
2023-05-18T03:37:27.976Z,9.50
2023-05-18T03:39:55.659Z,9.40
2023-05-18T03:42:22.944Z,9.50
2023-05-18T03:44:49.594Z,9.60
2023-05-18T03:47:16.285Z,9.90
2023-05-18T03:49:42.967Z,9.50
2023-05-18T03:52:09.611Z,9.50
2023-05-18T03:54:36.397Z,9.70
2023-05-18T03:57:03.216Z,9.70
2023-05-18T03:59:29.848Z,9.70
2023-05-18T04:01:56.700Z,9.80
2023-05-18T04:04:23.702Z,11.20
2023-05-18T04:06:53.312Z,9.60
2023-05-18T04:09:20.747Z,9.70
2023-05-18T04:11:47.449Z,9.70
2023-05-18T04:14:14.341Z,9.80
2023-05-18T04:16:41.763Z,9.90
2023-05-18T04:19:08.777Z,9.70
2023-05-18T04:21:36.077Z,9.60
2023-05-18T04:24:05.488Z,9.50
2023-05-18T04:26:36.714Z,9.40
2023-05-18T04:29:03.612Z,9.60
2023-05-18T04:31:30.501Z,9.60
2023-05-18T04:33:59.866Z,9.80
2023-05-18T04:36:30.493Z,9.50
2023-05-18T04:39:00.877Z,9.60
2023-05-18T04:41:27.515Z,9.60
2023-05-18T04:43:54.275Z,9.60
2023-05-18T04:46:23.827Z,9.80
2023-05-18T04:48:50.465Z,9.60
2023-05-18T04:51:21.542Z,9.30
2023-05-18T04:53:50.149Z,9.30
2023-05-18T04:56:22.677Z,9.40
2023-05-18T04:58:49.705Z,9.70
2023-05-18T05:01:16.516Z,9.50
2023-05-18T05:03:43.850Z,9.50
2023-05-18T05:06:11.672Z,9.60
2023-05-18T05:08:38.488Z,9.60
2023-05-18T05:11:05.272Z,9.70
2023-05-18T05:13:32.941Z,9.70
2023-05-18T05:15:59.692Z,9.70
2023-05-18T05:18:26.446Z,9.60
2023-05-18T05:20:54.062Z,9.50
2023-05-18T05:23:20.811Z,9.60
2023-05-18T05:25:47.445Z,9.40
2023-05-18T05:28:14.102Z,9.50
2023-05-18T05:30:40.883Z,9.60
2023-05-18T05:33:07.755Z,9.80
2023-05-18T05:35:34.481Z,9.90
2023-05-18T05:38:01.449Z,9.90
2023-05-18T05:40:28.149Z,10.00
2023-05-18T05:42:54.830Z,10.00
2023-05-18T05:45:21.640Z,9.60
2023-05-18T05:47:49.519Z,9.50
2023-05-18T05:50:16.302Z,9.40
2023-05-18T05:52:42.941Z,9.50
2023-05-18T05:55:09.717Z,9.80
2023-05-18T05:57:36.500Z,9.90
2023-05-18T06:00:04.827Z,10.00
2023-05-18T06:02:31.775Z,10.00
2023-05-18T06:04:58.499Z,10.00
2023-05-18T06:07:25.231Z,10.10
2023-05-18T06:09:51.899Z,10.10
2023-05-18T06:12:18.590Z,10.10
2023-05-18T06:14:45.260Z,9.90
2023-05-18T06:17:11.969Z,9.90
2023-05-18T06:19:38.612Z,9.70
2023-05-18T06:22:05.601Z,9.60
2023-05-18T06:24:32.223Z,9.70
2023-05-18T06:26:59.483Z,9.60
2023-05-18T06:29:26.179Z,9.70
2023-05-18T06:31:53.054Z,9.80
2023-05-18T06:34:19.760Z,10.00
2023-05-18T06:36:46.569Z,10.10
2023-05-18T06:39:13.212Z,10.20
2023-05-18T06:41:39.997Z,10.00
2023-05-18T06:44:06.781Z,10.00
2023-05-18T06:46:33.675Z,10.10
2023-05-18T06:49:01.223Z,10.30
2023-05-18T06:51:27.962Z,10.30
2023-05-18T06:53:54.642Z,10.10
2023-05-18T06:56:21.953Z,10.30
2023-05-18T06:58:49.090Z,10.40
2023-05-18T07:01:17.876Z,10.30
2023-05-18T07:03:44.773Z,10.60
2023-05-18T07:06:11.645Z,10.60
2023-05-18T07:08:38.364Z,10.70
2023-05-18T07:11:05.408Z,10.70
2023-05-18T07:13:32.519Z,10.40
2023-05-18T07:15:59.299Z,10.50
2023-05-18T07:18:26.550Z,10.50
2023-05-18T07:20:53.219Z,10.40
2023-05-18T07:23:20.006Z,10.40
2023-05-18T07:25:46.843Z,10.40
2023-05-18T07:28:13.564Z,10.30
2023-05-18T07:30:40.269Z,10.20
2023-05-18T07:33:07.031Z,10.20
2023-05-18T07:35:33.969Z,10.20
2023-05-18T07:38:00.938Z,10.30
2023-05-18T07:40:27.673Z,10.30
2023-05-18T07:42:54.410Z,10.50
2023-05-18T07:45:21.885Z,10.80
2023-05-18T07:47:48.681Z,10.90
2023-05-18T07:50:15.365Z,10.80
2023-05-18T07:52:42.269Z,10.70
2023-05-18T07:55:09.238Z,10.80
2023-05-18T07:57:36.242Z,10.80
2023-05-18T08:00:06.440Z,10.90
2023-05-18T08:02:34.485Z,10.80
2023-05-18T08:05:01.345Z,10.90
2023-05-18T08:07:30.136Z,11.10
2023-05-18T08:09:57.129Z,11.00
2023-05-18T08:12:24.614Z,10.90
2023-05-18T08:14:51.535Z,11.00
2023-05-18T08:17:19.613Z,11.20
2023-05-18T08:19:47.508Z,11.10
2023-05-18T08:22:15.492Z,11.40
2023-05-18T08:24:42.217Z,11.70
2023-05-18T08:27:11.150Z,12.00
2023-05-18T08:29:38.062Z,12.20
2023-05-18T08:32:08.080Z,12.10
2023-05-18T08:34:35.153Z,12.10
2023-05-18T08:37:01.818Z,11.80
2023-05-18T08:39:31.685Z,11.70
2023-05-18T08:42:02.350Z,11.90
2023-05-18T08:44:42.887Z,11.90
2023-05-18T08:47:11.360Z,11.70
2023-05-18T08:49:40.570Z,11.70
2023-05-18T08:52:08.967Z,11.70
2023-05-18T08:54:37.523Z,12.10
2023-05-18T08:57:11.668Z,11.60
2023-05-18T08:59:42.019Z,11.70
2023-05-18T09:02:09.952Z,11.90
2023-05-18T09:04:38.136Z,11.90
2023-05-18T09:07:07.226Z,11.90
2023-05-18T09:09:35.467Z,11.70
2023-05-18T09:12:02.664Z,11.60
2023-05-18T09:14:31.622Z,11.90
2023-05-18T09:16:58.437Z,12.30
2023-05-18T09:19:25.306Z,12.60
2023-05-18T09:21:52.038Z,12.90
2023-05-18T09:24:20.602Z,13.20
2023-05-18T09:26:48.700Z,13.40
2023-05-18T09:29:19.974Z,13.50
2023-05-18T09:31:47.533Z,13.70
2023-05-18T09:34:15.529Z,13.50
2023-05-18T09:36:46.657Z,13.30
2023-05-18T09:39:13.307Z,13.10
2023-05-18T09:41:40.915Z,12.90
2023-05-18T09:44:12.579Z,12.90
2023-05-18T09:46:40.366Z,12.80
2023-05-18T09:49:07.990Z,12.40
2023-05-18T09:51:36.247Z,12.30
2023-05-18T09:54:05.189Z,12.60
2023-05-18T09:56:35.769Z,13.00
2023-05-18T09:59:13.231Z,13.30
2023-05-18T10:02:02.587Z,13.50
2023-05-18T10:04:39.517Z,13.50
2023-05-18T10:07:13.596Z,13.30
2023-05-18T10:09:41.924Z,13.20
2023-05-18T10:12:16.308Z,13.20
2023-05-18T10:14:46.641Z,13.00
2023-05-18T10:17:16.711Z,12.70
2023-05-18T10:19:45.085Z,12.60
2023-05-18T10:22:15.925Z,12.80
2023-05-18T10:24:45.201Z,13.00
2023-05-18T10:27:14.355Z,13.10
2023-05-18T10:29:41.487Z,13.20
2023-05-18T10:32:12.792Z,13.30
2023-05-18T10:34:41.820Z,13.40
2023-05-18T10:37:11.751Z,13.30
2023-05-18T10:39:40.377Z,13.00
2023-05-18T10:42:09.373Z,13.20
2023-05-18T10:44:36.556Z,13.60
2023-05-18T10:47:06.028Z,13.50
2023-05-18T10:49:33.916Z,13.70
2023-05-18T10:52:02.978Z,13.60
2023-05-18T10:54:30.235Z,14.20
2023-05-18T10:56:56.941Z,13.80
2023-05-18T10:59:23.978Z,13.90
2023-05-18T11:01:53.067Z,13.80
2023-05-18T11:04:24.866Z,13.80
2023-05-18T11:06:58.171Z,14.00
2023-05-18T11:09:26.642Z,13.90
2023-05-18T11:12:00.915Z,14.00
2023-05-18T11:14:30.296Z,13.80
2023-05-18T11:17:22.021Z,13.90
2023-05-18T11:20:16.565Z,14.20
2023-05-18T11:22:51.224Z,14.40
2023-05-18T11:25:32.902Z,14.30
2023-05-18T11:28:07.688Z,14.30
2023-05-18T11:30:34.687Z,14.40
2023-05-18T11:33:28.612Z,14.50
2023-05-18T11:36:09.041Z,14.40
2023-05-18T11:38:55.977Z,14.20
2023-05-18T11:41:30.889Z,14.10
2023-05-18T11:44:16.868Z,14.30
2023-05-18T11:46:59.064Z,14.40
2023-05-18T11:49:28.638Z,14.40
2023-05-18T11:52:21.246Z,14.60
2023-05-18T11:54:59.230Z,14.50
2023-05-18T11:57:52.268Z,14.10
2023-05-18T12:00:20.430Z,14.30
2023-05-18T12:02:49.002Z,14.60
2023-05-18T12:05:16.343Z,14.80
2023-05-18T12:07:44.624Z,15.00
2023-05-18T12:10:14.679Z,15.20
2023-05-18T12:12:41.707Z,15.30
2023-05-18T12:15:10.296Z,15.40
2023-05-18T12:17:44.494Z,15.20
2023-05-18T12:20:15.005Z,15.00
2023-05-18T12:22:43.510Z,14.60
2023-05-18T12:25:10.851Z,14.60
2023-05-18T12:27:41.910Z,14.70
2023-05-18T12:30:15.133Z,15.00
2023-05-18T12:32:49.088Z,15.30
2023-05-18T12:35:16.084Z,15.20
2023-05-18T12:37:45.174Z,15.00
2023-05-18T12:40:22.642Z,15.00
2023-05-18T12:42:59.801Z,15.20
2023-05-18T12:45:28.731Z,15.20
2023-05-18T12:47:56.384Z,15.30
2023-05-18T12:50:26.402Z,15.60
2023-05-18T12:52:56.160Z,15.70
2023-05-18T12:55:25.056Z,16.00
2023-05-18T12:58:05.113Z,15.90
2023-05-18T13:00:36.379Z,16.10
2023-05-18T13:03:22.185Z,15.50
2023-05-18T13:06:06.735Z,15.20
2023-05-18T13:08:34.537Z,15.30
2023-05-18T13:11:13.835Z,15.50
2023-05-18T13:14:00.700Z,15.20
2023-05-18T13:16:29.682Z,15.30
2023-05-18T13:19:05.084Z,15.30
2023-05-18T13:21:32.026Z,15.70
2023-05-18T13:23:58.826Z,16.00
2023-05-18T13:26:25.755Z,16.10
2023-05-18T13:28:54.704Z,15.90
2023-05-18T13:31:22.277Z,16.30
2023-05-18T13:33:50.311Z,16.10
2023-05-18T13:36:18.325Z,15.80
2023-05-18T13:38:45.019Z,15.90
2023-05-18T13:41:14.744Z,15.90
2023-05-18T13:43:44.654Z,16.40
2023-05-18T13:46:11.406Z,16.20
2023-05-18T13:48:38.108Z,16.10
2023-05-18T13:51:04.946Z,16.00
2023-05-18T13:53:31.865Z,16.50
2023-05-18T13:55:58.591Z,16.60
2023-05-18T13:58:25.649Z,16.60
2023-05-18T14:00:53.830Z,16.40
2023-05-18T14:03:20.961Z,16.50
2023-05-18T14:05:47.748Z,16.90
2023-05-18T14:08:14.588Z,16.60
2023-05-18T14:10:41.434Z,16.60
2023-05-18T14:13:09.237Z,16.60
2023-05-18T14:15:36.000Z,16.70
2023-05-18T14:18:02.817Z,16.90
2023-05-18T14:20:30.186Z,17.10
2023-05-18T14:22:57.309Z,17.60
2023-05-18T14:25:23.960Z,17.70
2023-05-18T14:27:50.898Z,17.60
2023-05-18T14:30:17.569Z,17.60
2023-05-18T14:32:44.310Z,17.20
2023-05-18T14:35:11.086Z,16.10
2023-05-18T14:37:37.893Z,17.20
2023-05-18T14:40:05.804Z,17.50
2023-05-18T14:42:32.702Z,17.70
2023-05-18T14:44:59.438Z,17.60
2023-05-18T14:47:26.204Z,17.80
2023-05-18T14:49:52.913Z,18.20
2023-05-18T14:52:19.620Z,18.00
2023-05-18T14:54:47.784Z,15.60
2023-05-18T14:57:14.445Z,17.70
2023-05-18T14:59:41.395Z,17.70
2023-05-18T15:02:08.350Z,18.20
2023-05-18T15:04:36.052Z,18.20
2023-05-18T15:07:02.850Z,18.50
2023-05-18T15:09:29.498Z,18.80
2023-05-18T15:11:56.236Z,18.90
2023-05-18T15:14:22.882Z,19.10
2023-05-18T15:16:49.575Z,18.30
2023-05-18T15:19:16.321Z,17.90
2023-05-18T15:21:44.752Z,17.80
2023-05-18T15:24:11.486Z,17.60
2023-05-18T15:26:38.352Z,17.60
2023-05-18T15:29:05.126Z,17.80
2023-05-18T15:31:32.944Z,17.90
2023-05-18T15:33:59.738Z,18.50
2023-05-18T15:36:26.538Z,18.90
2023-05-18T15:38:53.267Z,19.00
2023-05-18T15:41:20.069Z,19.10
2023-05-18T15:43:46.804Z,18.40
2023-05-18T15:46:13.502Z,17.80
2023-05-18T15:48:40.218Z,17.40
2023-05-18T15:51:07.543Z,17.50
2023-05-18T15:53:34.422Z,17.80
2023-05-18T15:56:01.152Z,18.30
2023-05-18T15:58:28.271Z,18.40
2023-05-18T16:00:55.077Z,18.90
2023-05-18T16:03:22.032Z,19.40
2023-05-18T16:05:48.876Z,19.50
2023-05-18T16:08:15.530Z,20.10
2023-05-18T16:10:42.229Z,20.20
2023-05-18T16:13:09.398Z,19.40
2023-05-18T16:15:36.210Z,19.40
2023-05-18T16:18:03.554Z,20.90
2023-05-18T16:20:30.800Z,22.30
2023-05-18T16:22:59.373Z,23.80
2023-05-18T16:25:26.612Z,24.60
2023-05-18T16:27:53.364Z,24.50
2023-05-18T16:30:20.038Z,24.30
2023-05-18T16:32:46.722Z,23.60
2023-05-18T16:35:13.435Z,23.10
2023-05-18T16:37:40.159Z,22.60
2023-05-18T16:40:08.240Z,21.10
2023-05-18T16:42:35.315Z,19.80
2023-05-18T16:45:02.157Z,19.00
2023-05-18T16:47:32.094Z,18.00
2023-05-18T16:49:59.023Z,18.30
2023-05-18T16:52:25.717Z,18.40
2023-05-18T16:54:52.448Z,18.30
2023-05-18T16:57:20.070Z,17.70
2023-05-18T16:59:46.762Z,17.30
2023-05-18T17:02:14.107Z,17.20
2023-05-18T17:04:45.800Z,17.20
2023-05-18T17:07:12.917Z,17.20
2023-05-18T17:09:41.778Z,17.10
2023-05-18T17:12:10.170Z,16.70
2023-05-18T17:14:37.480Z,16.70
2023-05-18T17:17:05.309Z,16.80
2023-05-18T17:19:32.102Z,16.80
2023-05-18T17:21:58.736Z,16.80
2023-05-18T17:24:25.539Z,16.70
2023-05-18T17:26:52.523Z,16.50
2023-05-18T17:29:21.070Z,16.50
2023-05-18T17:31:48.846Z,16.70
2023-05-18T17:34:15.596Z,16.90
2023-05-18T17:36:42.612Z,16.80
2023-05-18T17:39:09.464Z,16.70
2023-05-18T17:41:37.074Z,16.70
2023-05-18T17:44:03.896Z,16.70
2023-05-18T17:46:30.783Z,16.80
2023-05-18T17:48:57.511Z,16.90
2023-05-18T17:51:24.681Z,16.90
2023-05-18T17:53:51.925Z,16.70
2023-05-18T17:56:18.766Z,16.40
2023-05-18T17:58:45.824Z,16.50
2023-05-18T18:01:12.642Z,16.30
2023-05-18T18:03:39.608Z,16.20
2023-05-18T18:06:07.205Z,16.30
2023-05-18T18:08:34.667Z,16.30
2023-05-18T18:11:01.394Z,16.70
2023-05-18T18:13:28.102Z,16.10
2023-05-18T18:15:54.800Z,15.90
2023-05-18T18:18:22.093Z,15.80
2023-05-18T18:20:48.821Z,15.80
2023-05-18T18:23:15.860Z,15.70
2023-05-18T18:25:43.963Z,15.80
2023-05-18T18:28:14.921Z,15.90
2023-05-18T18:30:44.202Z,15.80
2023-05-18T18:33:11.726Z,15.90
2023-05-18T18:35:38.823Z,16.10
2023-05-18T18:38:05.658Z,16.00
2023-05-18T18:40:33.806Z,16.00
2023-05-18T18:43:00.849Z,16.00
2023-05-18T18:45:29.129Z,16.00
2023-05-18T18:47:55.936Z,15.90
2023-05-18T18:50:22.665Z,15.70
2023-05-18T18:52:49.529Z,15.20
2023-05-18T18:55:17.065Z,15.10
2023-05-18T18:57:44.344Z,15.10
2023-05-18T19:00:12.119Z,15.10
2023-05-18T19:02:39.276Z,15.30
2023-05-18T19:05:07.413Z,15.20
2023-05-18T19:07:34.395Z,15.20
2023-05-18T19:10:01.111Z,15.30
2023-05-18T19:12:27.832Z,15.40
2023-05-18T19:14:54.505Z,15.40
2023-05-18T19:17:21.687Z,15.30
2023-05-18T19:19:48.502Z,15.30
2023-05-18T19:22:15.339Z,15.30
2023-05-18T19:24:42.118Z,15.10
2023-05-18T19:27:08.813Z,15.00
2023-05-18T19:29:38.226Z,15.00
2023-05-18T19:32:06.408Z,15.10
2023-05-18T19:34:33.218Z,15.00
2023-05-18T19:36:59.922Z,15.00
2023-05-18T19:39:26.748Z,14.90
2023-05-18T19:41:54.387Z,14.90
2023-05-18T19:44:21.073Z,14.90
2023-05-18T19:46:48.109Z,14.80
2023-05-18T19:49:14.749Z,14.70
2023-05-18T19:51:41.424Z,14.70
2023-05-18T19:54:08.097Z,14.60
2023-05-18T19:56:36.106Z,14.60
2023-05-18T19:59:02.929Z,14.60
2023-05-18T20:01:29.737Z,14.40
2023-05-18T20:03:56.930Z,14.30
2023-05-18T20:06:23.838Z,14.20
2023-05-18T20:08:50.680Z,14.20
2023-05-18T20:11:18.634Z,14.20
2023-05-18T20:13:46.074Z,14.20
2023-05-18T20:16:13.733Z,14.00
2023-05-18T20:18:40.685Z,14.10
2023-05-18T20:21:07.482Z,14.00
2023-05-18T20:23:34.200Z,14.00
2023-05-18T20:26:01.156Z,13.80
2023-05-18T20:28:28.723Z,14.00
2023-05-18T20:30:55.426Z,13.90
2023-05-18T20:33:22.605Z,13.90
2023-05-18T20:35:49.650Z,13.90
2023-05-18T20:38:16.903Z,13.90
2023-05-18T20:40:44.146Z,13.90
2023-05-18T20:43:17.641Z,13.90
2023-05-18T20:45:49.293Z,13.90
2023-05-18T20:48:24.357Z,13.80
2023-05-18T20:50:51.873Z,13.80
2023-05-18T20:53:18.928Z,13.80
2023-05-18T20:55:49.726Z,13.80
2023-05-18T20:58:19.843Z,13.70
2023-05-18T21:00:46.631Z,13.40
2023-05-18T21:03:14.352Z,13.30
2023-05-18T21:05:41.472Z,13.40
2023-05-18T21:08:08.193Z,13.00
2023-05-18T21:10:35.234Z,12.80
2023-05-18T21:13:02.127Z,12.80
2023-05-18T21:15:29.697Z,12.80
2023-05-18T21:17:56.862Z,12.80
2023-05-18T21:20:23.644Z,12.90
2023-05-18T21:22:50.379Z,13.00
2023-05-18T21:25:17.839Z,13.10
2023-05-18T21:27:44.587Z,13.10
2023-05-18T21:30:12.676Z,12.90
2023-05-18T21:32:40.618Z,12.80
2023-05-18T21:35:07.657Z,12.70
2023-05-18T21:37:34.361Z,12.70
2023-05-18T21:40:01.341Z,12.80
2023-05-18T21:42:28.022Z,12.90
2023-05-18T21:44:54.681Z,13.00
2023-05-18T21:47:21.438Z,13.00
2023-05-18T21:49:48.318Z,12.90
2023-05-18T21:52:15.503Z,12.90
2023-05-18T21:54:42.263Z,12.80
2023-05-18T21:57:09.243Z,12.80
2023-05-18T21:59:36.051Z,12.70
2023-05-18T22:02:02.765Z,12.60
2023-05-18T22:04:29.465Z,12.60
2023-05-18T22:06:56.415Z,12.60
2023-05-18T22:09:23.094Z,12.70
2023-05-18T22:11:49.766Z,12.60
2023-05-18T22:14:18.029Z,12.50
2023-05-18T22:16:45.172Z,12.60
2023-05-18T22:19:12.035Z,12.60
2023-05-18T22:21:38.749Z,12.50
2023-05-18T22:24:06.014Z,12.60
2023-05-18T22:26:32.712Z,12.50
2023-05-18T22:28:59.428Z,12.40
2023-05-18T22:31:26.283Z,12.40
2023-05-18T22:33:54.038Z,12.40
2023-05-18T22:36:21.572Z,12.40
2023-05-18T22:38:49.677Z,12.30
2023-05-18T22:41:17.169Z,12.20
2023-05-18T22:43:44.073Z,12.30
2023-05-18T22:46:11.492Z,12.20
2023-05-18T22:48:39.499Z,12.10
2023-05-18T22:51:06.940Z,12.00
2023-05-18T22:53:33.798Z,11.80
2023-05-18T22:56:00.642Z,11.70
2023-05-18T22:58:27.586Z,11.80
2023-05-18T23:00:54.253Z,11.70
2023-05-18T23:03:20.951Z,11.70
2023-05-18T23:05:48.400Z,11.70
2023-05-18T23:08:15.986Z,11.70
2023-05-18T23:10:44.405Z,12.10
2023-05-18T23:13:11.996Z,11.70
2023-05-18T23:15:38.870Z,11.70
2023-05-18T23:18:09.250Z,11.70
2023-05-18T23:20:36.184Z,11.60
2023-05-18T23:23:02.871Z,11.60
2023-05-18T23:25:29.845Z,11.70
2023-05-18T23:27:56.560Z,11.50
2023-05-18T23:30:23.269Z,11.50
2023-05-18T23:32:50.303Z,11.40
2023-05-18T23:35:18.124Z,11.40
2023-05-18T23:37:49.937Z,14.00
2023-05-18T23:40:18.280Z,11.40
2023-05-18T23:42:45.871Z,11.40
2023-05-18T23:45:13.201Z,11.30
2023-05-18T23:47:40.358Z,11.20
2023-05-18T23:50:08.226Z,9.80
2023-05-18T23:52:35.404Z,11.20
2023-05-18T23:55:04.206Z,11.10
2023-05-18T23:57:31.582Z,10.90
2023-05-18T23:59:58.745Z,10.70
